sensor_id;sensor_type;location;lat;lon;timestamp;P1;durP1;ratioP1;P2;durP2;ratioP2
18853;SDS011;9556;49.374;19.446;2022-11-11T00:01:24;13.95;;;8.77;;
18853;SDS011;9556;49.374;19.446;2022-11-11T00:03:53;14.45;;;9.60;;
18853;SDS011;9556;49.374;19.446;2022-11-11T00:06:21;13.98;;;8.88;;
18853;SDS011;9556;49.374;19.446;2022-11-11T00:08:48;13.30;;;8.50;;
18853;SDS011;9556;49.374;19.446;2022-11-11T00:11:17;13.50;;;8.93;;
18853;SDS011;9556;49.374;19.446;2022-11-11T00:13:44;14.05;;;8.55;;
18853;SDS011;9556;49.374;19.446;2022-11-11T00:16:12;12.63;;;8.52;;
18853;SDS011;9556;49.374;19.446;2022-11-11T00:18:39;11.90;;;8.13;;
18853;SDS011;9556;49.374;19.446;2022-11-11T00:21:24;13.45;;;8.45;;
18853;SDS011;9556;49.374;19.446;2022-11-11T00:24:11;11.52;;;7.95;;
18853;SDS011;9556;49.374;19.446;2022-11-11T00:27:03;10.57;;;7.55;;
18853;SDS011;9556;49.374;19.446;2022-11-11T00:29:31;11.30;;;7.82;;
18853;SDS011;9556;49.374;19.446;2022-11-11T00:31:58;11.68;;;8.00;;
18853;SDS011;9556;49.374;19.446;2022-11-11T00:34:43;10.75;;;7.65;;
18853;SDS011;9556;49.374;19.446;2022-11-11T00:37:31;10.35;;;7.35;;
18853;SDS011;9556;49.374;19.446;2022-11-11T00:39:57;10.88;;;7.05;;
18853;SDS011;9556;49.374;19.446;2022-11-11T00:42:25;10.05;;;7.00;;
18853;SDS011;9556;49.374;19.446;2022-11-11T00:44:53;11.18;;;7.00;;
18853;SDS011;9556;49.374;19.446;2022-11-11T00:47:20;9.82;;;6.90;;
18853;SDS011;9556;49.374;19.446;2022-11-11T00:50:05;9.95;;;6.95;;
18853;SDS011;9556;49.374;19.446;2022-11-11T00:52:51;10.95;;;7.65;;
18853;SDS011;9556;49.374;19.446;2022-11-11T00:55:18;10.63;;;7.55;;
18853;SDS011;9556;49.374;19.446;2022-11-11T00:57:47;9.55;;;6.93;;
18853;SDS011;9556;49.374;19.446;2022-11-11T01:00:14;10.32;;;6.88;;
18853;SDS011;9556;49.374;19.446;2022-11-11T01:02:41;9.63;;;6.72;;
18853;SDS011;9556;49.374;19.446;2022-11-11T01:05:08;10.82;;;7.38;;
18853;SDS011;9556;49.374;19.446;2022-11-11T01:07:35;9.38;;;6.57;;
18853;SDS011;9556;49.374;19.446;2022-11-11T01:10:02;10.57;;;7.15;;
18853;SDS011;9556;49.374;19.446;2022-11-11T01:12:30;9.68;;;6.60;;
18853;SDS011;9556;49.374;19.446;2022-11-11T01:14:58;10.57;;;7.00;;
18853;SDS011;9556;49.374;19.446;2022-11-11T01:17:26;10.23;;;7.00;;
18853;SDS011;9556;49.374;19.446;2022-11-11T01:19:54;9.57;;;6.63;;
18853;SDS011;9556;49.374;19.446;2022-11-11T01:22:21;8.95;;;6.05;;
18853;SDS011;9556;49.374;19.446;2022-11-11T01:24:48;8.70;;;6.18;;
18853;SDS011;9556;49.374;19.446;2022-11-11T01:27:15;8.02;;;5.88;;
18853;SDS011;9556;49.374;19.446;2022-11-11T01:29:42;8.98;;;5.75;;
18853;SDS011;9556;49.374;19.446;2022-11-11T01:32:11;9.15;;;6.03;;
18853;SDS011;9556;49.374;19.446;2022-11-11T01:34:38;9.20;;;5.93;;
18853;SDS011;9556;49.374;19.446;2022-11-11T01:37:05;9.02;;;6.22;;
18853;SDS011;9556;49.374;19.446;2022-11-11T01:39:33;9.23;;;5.80;;
18853;SDS011;9556;49.374;19.446;2022-11-11T01:42:00;8.65;;;5.95;;
18853;SDS011;9556;49.374;19.446;2022-11-11T01:44:40;8.27;;;5.80;;
18853;SDS011;9556;49.374;19.446;2022-11-11T01:47:08;9.23;;;6.32;;
18853;SDS011;9556;49.374;19.446;2022-11-11T01:49:38;8.38;;;5.55;;
18853;SDS011;9556;49.374;19.446;2022-11-11T01:52:06;7.82;;;5.53;;
18853;SDS011;9556;49.374;19.446;2022-11-11T01:54:37;7.75;;;5.65;;
18853;SDS011;9556;49.374;19.446;2022-11-11T01:57:07;8.40;;;5.50;;
18853;SDS011;9556;49.374;19.446;2022-11-11T01:59:37;9.15;;;5.60;;
18853;SDS011;9556;49.374;19.446;2022-11-11T02:02:08;8.18;;;5.47;;
18853;SDS011;9556;49.374;19.446;2022-11-11T02:04:38;7.18;;;4.95;;
18853;SDS011;9556;49.374;19.446;2022-11-11T02:07:24;9.25;;;5.60;;
18853;SDS011;9556;49.374;19.446;2022-11-11T02:09:52;8.43;;;5.40;;
18853;SDS011;9556;49.374;19.446;2022-11-11T02:12:20;8.20;;;5.47;;
18853;SDS011;9556;49.374;19.446;2022-11-11T02:15:05;8.13;;;5.35;;
18853;SDS011;9556;49.374;19.446;2022-11-11T02:17:32;7.38;;;4.88;;
18853;SDS011;9556;49.374;19.446;2022-11-11T02:20:01;7.97;;;5.20;;
18853;SDS011;9556;49.374;19.446;2022-11-11T02:22:33;8.20;;;5.60;;
18853;SDS011;9556;49.374;19.446;2022-11-11T02:25:04;6.65;;;4.80;;
18853;SDS011;9556;49.374;19.446;2022-11-11T02:27:33;6.75;;;4.60;;
18853;SDS011;9556;49.374;19.446;2022-11-11T02:30:01;7.65;;;5.13;;
18853;SDS011;9556;49.374;19.446;2022-11-11T02:32:30;8.05;;;4.78;;
18853;SDS011;9556;49.374;19.446;2022-11-11T02:34:57;7.07;;;4.80;;
18853;SDS011;9556;49.374;19.446;2022-11-11T02:37:25;6.82;;;4.72;;
18853;SDS011;9556;49.374;19.446;2022-11-11T02:39:53;7.35;;;4.88;;
18853;SDS011;9556;49.374;19.446;2022-11-11T02:42:23;7.53;;;4.90;;
18853;SDS011;9556;49.374;19.446;2022-11-11T02:44:50;6.45;;;4.53;;
18853;SDS011;9556;49.374;19.446;2022-11-11T02:47:22;6.65;;;4.38;;
18853;SDS011;9556;49.374;19.446;2022-11-11T02:49:49;7.05;;;4.50;;
18853;SDS011;9556;49.374;19.446;2022-11-11T02:52:17;6.18;;;4.53;;
18853;SDS011;9556;49.374;19.446;2022-11-11T02:54:44;5.85;;;4.30;;
18853;SDS011;9556;49.374;19.446;2022-11-11T02:57:12;6.00;;;4.25;;
18853;SDS011;9556;49.374;19.446;2022-11-11T02:59:41;5.97;;;4.50;;
18853;SDS011;9556;49.374;19.446;2022-11-11T03:02:08;5.28;;;3.80;;
18853;SDS011;9556;49.374;19.446;2022-11-11T03:04:35;7.28;;;4.43;;
18853;SDS011;9556;49.374;19.446;2022-11-11T03:07:03;5.70;;;4.20;;
18853;SDS011;9556;49.374;19.446;2022-11-11T03:09:30;5.80;;;4.22;;
18853;SDS011;9556;49.374;19.446;2022-11-11T03:11:57;5.88;;;4.13;;
18853;SDS011;9556;49.374;19.446;2022-11-11T03:14:25;5.75;;;4.25;;
18853;SDS011;9556;49.374;19.446;2022-11-11T03:16:53;4.85;;;3.75;;
18853;SDS011;9556;49.374;19.446;2022-11-11T03:19:38;5.28;;;3.90;;
18853;SDS011;9556;49.374;19.446;2022-11-11T03:22:05;5.70;;;4.07;;
18853;SDS011;9556;49.374;19.446;2022-11-11T03:24:31;5.28;;;3.95;;
18853;SDS011;9556;49.374;19.446;2022-11-11T03:27:16;6.03;;;4.45;;
18853;SDS011;9556;49.374;19.446;2022-11-11T03:29:43;5.47;;;3.97;;
18853;SDS011;9556;49.374;19.446;2022-11-11T03:32:11;4.60;;;3.72;;
18853;SDS011;9556;49.374;19.446;2022-11-11T03:34:38;4.63;;;3.55;;
18853;SDS011;9556;49.374;19.446;2022-11-11T03:37:06;5.10;;;3.65;;
18853;SDS011;9556;49.374;19.446;2022-11-11T03:39:52;5.20;;;3.85;;
18853;SDS011;9556;49.374;19.446;2022-11-11T03:42:19;5.05;;;3.90;;
18853;SDS011;9556;49.374;19.446;2022-11-11T03:44:46;5.68;;;3.88;;
18853;SDS011;9556;49.374;19.446;2022-11-11T03:47:14;5.13;;;3.67;;
18853;SDS011;9556;49.374;19.446;2022-11-11T03:49:41;4.43;;;3.50;;
18853;SDS011;9556;49.374;19.446;2022-11-11T03:52:10;5.35;;;3.72;;
18853;SDS011;9556;49.374;19.446;2022-11-11T03:54:38;5.30;;;3.75;;
18853;SDS011;9556;49.374;19.446;2022-11-11T03:57:05;4.25;;;3.35;;
18853;SDS011;9556;49.374;19.446;2022-11-11T03:59:49;4.72;;;3.55;;
18853;SDS011;9556;49.374;19.446;2022-11-11T04:02:18;4.60;;;3.10;;
18853;SDS011;9556;49.374;19.446;2022-11-11T04:05:03;4.30;;;3.50;;
18853;SDS011;9556;49.374;19.446;2022-11-11T04:07:49;4.43;;;3.20;;
18853;SDS011;9556;49.374;19.446;2022-11-11T04:10:34;4.88;;;3.10;;
18853;SDS011;9556;49.374;19.446;2022-11-11T04:13:01;4.57;;;3.33;;
18853;SDS011;9556;49.374;19.446;2022-11-11T04:15:46;4.32;;;3.22;;
18853;SDS011;9556;49.374;19.446;2022-11-11T04:18:33;4.07;;;3.10;;
18853;SDS011;9556;49.374;19.446;2022-11-11T04:21:18;5.03;;;3.42;;
18853;SDS011;9556;49.374;19.446;2022-11-11T04:24:04;4.55;;;3.25;;
18853;SDS011;9556;49.374;19.446;2022-11-11T04:26:52;4.43;;;3.13;;
18853;SDS011;9556;49.374;19.446;2022-11-11T04:29:18;4.10;;;3.10;;
18853;SDS011;9556;49.374;19.446;2022-11-11T04:31:56;4.55;;;3.20;;
18853;SDS011;9556;49.374;19.446;2022-11-11T04:34:42;4.78;;;3.30;;
18853;SDS011;9556;49.374;19.446;2022-11-11T04:37:10;5.05;;;3.33;;
18853;SDS011;9556;49.374;19.446;2022-11-11T04:39:37;5.07;;;3.50;;
18853;SDS011;9556;49.374;19.446;2022-11-11T04:42:22;4.18;;;3.33;;
18853;SDS011;9556;49.374;19.446;2022-11-11T04:44:49;5.15;;;3.05;;
18853;SDS011;9556;49.374;19.446;2022-11-11T04:47:34;4.47;;;3.15;;
18853;SDS011;9556;49.374;19.446;2022-11-11T04:50:03;3.83;;;2.92;;
18853;SDS011;9556;49.374;19.446;2022-11-11T04:52:30;4.03;;;2.90;;
18853;SDS011;9556;49.374;19.446;2022-11-11T04:54:58;4.28;;;3.05;;
18853;SDS011;9556;49.374;19.446;2022-11-11T04:57:43;5.20;;;3.25;;
18853;SDS011;9556;49.374;19.446;2022-11-11T05:00:11;4.18;;;3.00;;
18853;SDS011;9556;49.374;19.446;2022-11-11T05:02:39;4.07;;;3.10;;
18853;SDS011;9556;49.374;19.446;2022-11-11T05:05:25;4.30;;;3.30;;
18853;SDS011;9556;49.374;19.446;2022-11-11T05:07:52;4.15;;;3.17;;
18853;SDS011;9556;49.374;19.446;2022-11-11T05:10:37;5.47;;;3.35;;
18853;SDS011;9556;49.374;19.446;2022-11-11T05:13:04;4.40;;;3.28;;
18853;SDS011;9556;49.374;19.446;2022-11-11T05:15:49;4.78;;;3.20;;
18853;SDS011;9556;49.374;19.446;2022-11-11T05:18:34;4.82;;;3.25;;
18853;SDS011;9556;49.374;19.446;2022-11-11T05:21:21;4.80;;;3.28;;
18853;SDS011;9556;49.374;19.446;2022-11-11T05:23:49;4.60;;;2.97;;
18853;SDS011;9556;49.374;19.446;2022-11-11T05:26:34;3.67;;;2.90;;
18853;SDS011;9556;49.374;19.446;2022-11-11T05:29:01;4.93;;;3.40;;
18853;SDS011;9556;49.374;19.446;2022-11-11T05:31:28;4.32;;;2.95;;
18853;SDS011;9556;49.374;19.446;2022-11-11T05:33:56;3.95;;;3.03;;
18853;SDS011;9556;49.374;19.446;2022-11-11T05:36:24;4.15;;;3.00;;
18853;SDS011;9556;49.374;19.446;2022-11-11T05:38:51;3.80;;;2.90;;
18853;SDS011;9556;49.374;19.446;2022-11-11T05:41:19;4.30;;;3.00;;
18853;SDS011;9556;49.374;19.446;2022-11-11T05:43:46;3.78;;;3.05;;
18853;SDS011;9556;49.374;19.446;2022-11-11T05:46:13;4.20;;;2.83;;
18853;SDS011;9556;49.374;19.446;2022-11-11T05:48:40;4.28;;;3.10;;
18853;SDS011;9556;49.374;19.446;2022-11-11T05:51:21;3.50;;;2.83;;
18853;SDS011;9556;49.374;19.446;2022-11-11T05:53:54;3.65;;;2.88;;
18853;SDS011;9556;49.374;19.446;2022-11-11T05:56:21;4.03;;;3.13;;
18853;SDS011;9556;49.374;19.446;2022-11-11T05:58:49;4.00;;;2.88;;
18853;SDS011;9556;49.374;19.446;2022-11-11T06:01:16;4.07;;;2.80;;
18853;SDS011;9556;49.374;19.446;2022-11-11T06:03:44;4.22;;;2.97;;
18853;SDS011;9556;49.374;19.446;2022-11-11T06:06:11;3.15;;;2.60;;
18853;SDS011;9556;49.374;19.446;2022-11-11T06:08:38;4.20;;;2.60;;
18853;SDS011;9556;49.374;19.446;2022-11-11T06:11:07;3.60;;;2.65;;
18853;SDS011;9556;49.374;19.446;2022-11-11T06:13:34;4.03;;;2.65;;
18853;SDS011;9556;49.374;19.446;2022-11-11T06:16:02;3.72;;;2.70;;
18853;SDS011;9556;49.374;19.446;2022-11-11T06:18:29;4.05;;;3.10;;
18853;SDS011;9556;49.374;19.446;2022-11-11T06:20:57;3.33;;;2.60;;
18853;SDS011;9556;49.374;19.446;2022-11-11T06:23:24;3.90;;;2.80;;
18853;SDS011;9556;49.374;19.446;2022-11-11T06:25:52;3.72;;;2.67;;
18853;SDS011;9556;49.374;19.446;2022-11-11T06:28:38;4.65;;;3.05;;
18853;SDS011;9556;49.374;19.446;2022-11-11T06:31:06;3.83;;;2.85;;
18853;SDS011;9556;49.374;19.446;2022-11-11T06:33:33;3.03;;;2.65;;
18853;SDS011;9556;49.374;19.446;2022-11-11T06:36:00;3.38;;;2.75;;
18853;SDS011;9556;49.374;19.446;2022-11-11T06:38:28;4.18;;;2.95;;
18853;SDS011;9556;49.374;19.446;2022-11-11T06:40:55;3.72;;;2.72;;
18853;SDS011;9556;49.374;19.446;2022-11-11T06:43:22;3.70;;;2.70;;
18853;SDS011;9556;49.374;19.446;2022-11-11T06:45:51;3.88;;;2.78;;
18853;SDS011;9556;49.374;19.446;2022-11-11T06:48:18;3.75;;;2.72;;
18853;SDS011;9556;49.374;19.446;2022-11-11T06:50:45;4.43;;;2.97;;
18853;SDS011;9556;49.374;19.446;2022-11-11T06:53:13;3.10;;;2.50;;
18853;SDS011;9556;49.374;19.446;2022-11-11T06:55:41;3.42;;;2.60;;
18853;SDS011;9556;49.374;19.446;2022-11-11T06:58:08;4.07;;;2.80;;
18853;SDS011;9556;49.374;19.446;2022-11-11T07:00:36;3.75;;;2.67;;
18853;SDS011;9556;49.374;19.446;2022-11-11T07:03:05;3.30;;;2.70;;
18853;SDS011;9556;49.374;19.446;2022-11-11T07:05:32;3.65;;;2.63;;
18853;SDS011;9556;49.374;19.446;2022-11-11T07:08:00;3.00;;;2.55;;
18853;SDS011;9556;49.374;19.446;2022-11-11T07:10:28;5.65;;;2.80;;
18853;SDS011;9556;49.374;19.446;2022-11-11T07:12:55;4.65;;;2.70;;
18853;SDS011;9556;49.374;19.446;2022-11-11T07:15:22;3.30;;;2.60;;
18853;SDS011;9556;49.374;19.446;2022-11-11T07:17:49;3.15;;;2.50;;
18853;SDS011;9556;49.374;19.446;2022-11-11T07:20:18;4.68;;;2.72;;
18853;SDS011;9556;49.374;19.446;2022-11-11T07:22:46;3.38;;;2.63;;
18853;SDS011;9556;49.374;19.446;2022-11-11T07:25:13;3.83;;;2.67;;
18853;SDS011;9556;49.374;19.446;2022-11-11T07:27:40;2.70;;;2.25;;
18853;SDS011;9556;49.374;19.446;2022-11-11T07:30:08;3.92;;;2.42;;
18853;SDS011;9556;49.374;19.446;2022-11-11T07:32:36;3.10;;;2.50;;
18853;SDS011;9556;49.374;19.446;2022-11-11T07:35:03;3.30;;;2.40;;
18853;SDS011;9556;49.374;19.446;2022-11-11T07:37:32;4.30;;;2.70;;
18853;SDS011;9556;49.374;19.446;2022-11-11T07:39:59;3.33;;;2.63;;
18853;SDS011;9556;49.374;19.446;2022-11-11T07:42:26;3.83;;;2.60;;
18853;SDS011;9556;49.374;19.446;2022-11-11T07:44:53;4.25;;;2.53;;
18853;SDS011;9556;49.374;19.446;2022-11-11T07:47:21;3.67;;;2.67;;
18853;SDS011;9556;49.374;19.446;2022-11-11T07:49:48;3.22;;;2.58;;
18853;SDS011;9556;49.374;19.446;2022-11-11T07:52:15;3.33;;;2.40;;
18853;SDS011;9556;49.374;19.446;2022-11-11T07:54:43;3.97;;;2.58;;
18853;SDS011;9556;49.374;19.446;2022-11-11T07:57:10;3.25;;;2.35;;
18853;SDS011;9556;49.374;19.446;2022-11-11T07:59:38;2.92;;;2.25;;
18853;SDS011;9556;49.374;19.446;2022-11-11T08:02:07;3.85;;;2.70;;
18853;SDS011;9556;49.374;19.446;2022-11-11T08:04:34;3.28;;;2.20;;
18853;SDS011;9556;49.374;19.446;2022-11-11T08:07:02;3.42;;;2.42;;
18853;SDS011;9556;49.374;19.446;2022-11-11T08:09:29;2.63;;;1.95;;
18853;SDS011;9556;49.374;19.446;2022-11-11T08:11:57;2.78;;;2.17;;
18853;SDS011;9556;49.374;19.446;2022-11-11T08:14:42;2.80;;;2.00;;
18853;SDS011;9556;49.374;19.446;2022-11-11T08:17:09;2.78;;;2.38;;
18853;SDS011;9556;49.374;19.446;2022-11-11T08:19:36;4.32;;;2.50;;
18853;SDS011;9556;49.374;19.446;2022-11-11T08:22:03;3.10;;;2.30;;
18853;SDS011;9556;49.374;19.446;2022-11-11T08:24:30;3.42;;;2.45;;
18853;SDS011;9556;49.374;19.446;2022-11-11T08:26:59;3.47;;;2.75;;
18853;SDS011;9556;49.374;19.446;2022-11-11T08:29:26;3.15;;;2.25;;
18853;SDS011;9556;49.374;19.446;2022-11-11T08:31:53;3.78;;;2.47;;
18853;SDS011;9556;49.374;19.446;2022-11-11T08:34:21;3.65;;;2.47;;
18853;SDS011;9556;49.374;19.446;2022-11-11T08:36:48;3.45;;;2.42;;
18853;SDS011;9556;49.374;19.446;2022-11-11T08:39:16;3.40;;;2.45;;
18853;SDS011;9556;49.374;19.446;2022-11-11T08:41:43;3.20;;;2.33;;
18853;SDS011;9556;49.374;19.446;2022-11-11T08:44:11;3.38;;;2.15;;
18853;SDS011;9556;49.374;19.446;2022-11-11T08:46:39;3.20;;;2.33;;
18853;SDS011;9556;49.374;19.446;2022-11-11T08:49:06;3.42;;;2.60;;
18853;SDS011;9556;49.374;19.446;2022-11-11T08:51:35;5.00;;;2.70;;
18853;SDS011;9556;49.374;19.446;2022-11-11T08:54:02;3.25;;;2.45;;
18853;SDS011;9556;49.374;19.446;2022-11-11T08:56:29;3.60;;;2.42;;
18853;SDS011;9556;49.374;19.446;2022-11-11T08:58:57;3.95;;;2.90;;
18853;SDS011;9556;49.374;19.446;2022-11-11T09:01:25;4.07;;;2.63;;
18853;SDS011;9556;49.374;19.446;2022-11-11T09:03:52;3.72;;;2.70;;
18853;SDS011;9556;49.374;19.446;2022-11-11T09:06:19;3.58;;;2.60;;
18853;SDS011;9556;49.374;19.446;2022-11-11T09:08:46;4.15;;;2.92;;
18853;SDS011;9556;49.374;19.446;2022-11-11T09:11:13;4.32;;;2.83;;
18853;SDS011;9556;49.374;19.446;2022-11-11T09:13:41;3.67;;;2.60;;
18853;SDS011;9556;49.374;19.446;2022-11-11T09:16:08;4.97;;;2.92;;
18853;SDS011;9556;49.374;19.446;2022-11-11T09:18:36;4.28;;;2.90;;
18853;SDS011;9556;49.374;19.446;2022-11-11T09:21:04;3.63;;;2.80;;
18853;SDS011;9556;49.374;19.446;2022-11-11T09:23:31;3.53;;;2.90;;
18853;SDS011;9556;49.374;19.446;2022-11-11T09:25:59;4.60;;;2.95;;
18853;SDS011;9556;49.374;19.446;2022-11-11T09:28:28;4.80;;;3.03;;
18853;SDS011;9556;49.374;19.446;2022-11-11T09:30:58;4.15;;;3.10;;
18853;SDS011;9556;49.374;19.446;2022-11-11T09:33:25;5.40;;;2.90;;
18853;SDS011;9556;49.374;19.446;2022-11-11T09:35:54;3.78;;;2.88;;
18853;SDS011;9556;49.374;19.446;2022-11-11T09:38:21;3.95;;;2.63;;
18853;SDS011;9556;49.374;19.446;2022-11-11T09:40:50;4.75;;;3.20;;
18853;SDS011;9556;49.374;19.446;2022-11-11T09:43:23;3.63;;;2.60;;
18853;SDS011;9556;49.374;19.446;2022-11-11T09:45:58;4.28;;;2.60;;
18853;SDS011;9556;49.374;19.446;2022-11-11T09:48:33;4.85;;;2.60;;
18853;SDS011;9556;49.374;19.446;2022-11-11T09:51:04;4.55;;;2.70;;
18853;SDS011;9556;49.374;19.446;2022-11-11T09:53:32;3.70;;;2.47;;
18853;SDS011;9556;49.374;19.446;2022-11-11T09:56:04;4.10;;;2.60;;
18853;SDS011;9556;49.374;19.446;2022-11-11T09:58:33;4.40;;;3.10;;
18853;SDS011;9556;49.374;19.446;2022-11-11T10:01:04;4.25;;;2.70;;
18853;SDS011;9556;49.374;19.446;2022-11-11T10:03:33;3.60;;;2.80;;
18853;SDS011;9556;49.374;19.446;2022-11-11T10:06:08;4.97;;;2.70;;
18853;SDS011;9556;49.374;19.446;2022-11-11T10:08:36;4.22;;;2.45;;
18853;SDS011;9556;49.374;19.446;2022-11-11T10:11:09;4.22;;;2.72;;
18853;SDS011;9556;49.374;19.446;2022-11-11T10:13:38;4.00;;;2.67;;
18853;SDS011;9556;49.374;19.446;2022-11-11T10:16:06;3.53;;;2.67;;
18853;SDS011;9556;49.374;19.446;2022-11-11T10:18:39;4.07;;;2.72;;
18853;SDS011;9556;49.374;19.446;2022-11-11T10:21:11;3.35;;;2.60;;
18853;SDS011;9556;49.374;19.446;2022-11-11T10:23:39;3.75;;;2.80;;
18853;SDS011;9556;49.374;19.446;2022-11-11T10:26:10;4.55;;;3.25;;
18853;SDS011;9556;49.374;19.446;2022-11-11T10:28:39;4.05;;;2.90;;
18853;SDS011;9556;49.374;19.446;2022-11-11T10:31:10;5.43;;;3.15;;
18853;SDS011;9556;49.374;19.446;2022-11-11T10:33:40;4.40;;;3.00;;
18853;SDS011;9556;49.374;19.446;2022-11-11T10:36:12;4.45;;;2.53;;
18853;SDS011;9556;49.374;19.446;2022-11-11T10:38:44;4.00;;;2.78;;
18853;SDS011;9556;49.374;19.446;2022-11-11T10:41:13;4.53;;;2.75;;
18853;SDS011;9556;49.374;19.446;2022-11-11T10:43:43;3.75;;;2.92;;
18853;SDS011;9556;49.374;19.446;2022-11-11T10:46:12;3.47;;;2.67;;
18853;SDS011;9556;49.374;19.446;2022-11-11T10:48:43;4.32;;;2.67;;
18853;SDS011;9556;49.374;19.446;2022-11-11T10:51:14;3.45;;;2.58;;
18853;SDS011;9556;49.374;19.446;2022-11-11T10:53:45;3.83;;;2.47;;
18853;SDS011;9556;49.374;19.446;2022-11-11T10:56:17;4.22;;;2.60;;
18853;SDS011;9556;49.374;19.446;2022-11-11T10:58:46;3.67;;;2.50;;
18853;SDS011;9556;49.374;19.446;2022-11-11T11:01:16;3.70;;;2.40;;
18853;SDS011;9556;49.374;19.446;2022-11-11T11:03:46;4.13;;;2.45;;
18853;SDS011;9556;49.374;19.446;2022-11-11T11:06:18;4.18;;;2.50;;
18853;SDS011;9556;49.374;19.446;2022-11-11T11:08:50;4.15;;;2.40;;
18853;SDS011;9556;49.374;19.446;2022-11-11T11:11:19;3.50;;;2.17;;
18853;SDS011;9556;49.374;19.446;2022-11-11T11:13:47;2.72;;;2.20;;
18853;SDS011;9556;49.374;19.446;2022-11-11T11:16:16;5.43;;;2.40;;
18853;SDS011;9556;49.374;19.446;2022-11-11T11:18:48;2.92;;;2.20;;
18853;SDS011;9556;49.374;19.446;2022-11-11T11:21:46;3.35;;;2.40;;
18853;SDS011;9556;49.374;19.446;2022-11-11T11:24:19;4.05;;;2.20;;
18853;SDS011;9556;49.374;19.446;2022-11-11T11:26:48;3.08;;;2.28;;
18853;SDS011;9556;49.374;19.446;2022-11-11T11:29:22;4.22;;;2.50;;
18853;SDS011;9556;49.374;19.446;2022-11-11T11:31:50;3.70;;;2.10;;
18853;SDS011;9556;49.374;19.446;2022-11-11T11:34:18;3.03;;;2.40;;
18853;SDS011;9556;49.374;19.446;2022-11-11T11:36:50;3.10;;;2.15;;
18853;SDS011;9556;49.374;19.446;2022-11-11T11:39:32;3.85;;;2.10;;
18853;SDS011;9556;49.374;19.446;2022-11-11T11:41:59;4.47;;;2.30;;
18853;SDS011;9556;49.374;19.446;2022-11-11T11:44:27;3.33;;;2.22;;
18853;SDS011;9556;49.374;19.446;2022-11-11T11:46:56;3.25;;;2.00;;
18853;SDS011;9556;49.374;19.446;2022-11-11T11:49:30;3.60;;;2.20;;
18853;SDS011;9556;49.374;19.446;2022-11-11T11:52:03;3.58;;;2.20;;
18853;SDS011;9556;49.374;19.446;2022-11-11T11:54:37;3.35;;;2.13;;
18853;SDS011;9556;49.374;19.446;2022-11-11T11:57:10;2.38;;;1.98;;
18853;SDS011;9556;49.374;19.446;2022-11-11T11:59:45;3.03;;;1.98;;
18853;SDS011;9556;49.374;19.446;2022-11-11T12:02:21;2.83;;;2.00;;
18853;SDS011;9556;49.374;19.446;2022-11-11T12:04:57;2.85;;;2.00;;
18853;SDS011;9556;49.374;19.446;2022-11-11T12:07:32;2.83;;;1.85;;
18853;SDS011;9556;49.374;19.446;2022-11-11T12:10:05;2.53;;;1.90;;
18853;SDS011;9556;49.374;19.446;2022-11-11T12:12:38;2.67;;;2.10;;
18853;SDS011;9556;49.374;19.446;2022-11-11T12:15:14;2.90;;;2.03;;
18853;SDS011;9556;49.374;19.446;2022-11-11T12:17:47;2.40;;;1.92;;
18853;SDS011;9556;49.374;19.446;2022-11-11T12:20:17;4.53;;;1.92;;
18853;SDS011;9556;49.374;19.446;2022-11-11T12:22:50;3.08;;;1.98;;
18853;SDS011;9556;49.374;19.446;2022-11-11T12:25:27;3.42;;;2.10;;
18853;SDS011;9556;49.374;19.446;2022-11-11T12:27:58;2.90;;;1.88;;
18853;SDS011;9556;49.374;19.446;2022-11-11T12:30:27;2.65;;;1.90;;
18853;SDS011;9556;49.374;19.446;2022-11-11T12:38:36;2.60;;;1.75;;
18853;SDS011;9556;49.374;19.446;2022-11-11T12:41:10;3.90;;;2.00;;
18853;SDS011;9556;49.374;19.446;2022-11-11T12:43:43;4.13;;;1.80;;
18853;SDS011;9556;49.374;19.446;2022-11-11T12:46:15;2.40;;;1.58;;
18853;SDS011;9556;49.374;19.446;2022-11-11T12:48:50;2.45;;;1.90;;
18853;SDS011;9556;49.374;19.446;2022-11-11T12:51:21;2.00;;;1.70;;
18853;SDS011;9556;49.374;19.446;2022-11-11T12:53:55;2.33;;;1.60;;
18853;SDS011;9556;49.374;19.446;2022-11-11T12:56:27;2.85;;;1.70;;
18853;SDS011;9556;49.374;19.446;2022-11-11T12:58:58;3.30;;;1.90;;
18853;SDS011;9556;49.374;19.446;2022-11-11T13:01:29;6.05;;;1.83;;
18853;SDS011;9556;49.374;19.446;2022-11-11T13:04:03;2.78;;;1.88;;
18853;SDS011;9556;49.374;19.446;2022-11-11T13:06:40;2.25;;;1.67;;
18853;SDS011;9556;49.374;19.446;2022-11-11T13:12:01;2.08;;;1.40;;
18853;SDS011;9556;49.374;19.446;2022-11-11T13:14:37;3.92;;;1.85;;
18853;SDS011;9556;49.374;19.446;2022-11-11T13:17:08;3.13;;;2.03;;
18853;SDS011;9556;49.374;19.446;2022-11-11T13:19:37;3.10;;;2.00;;
18853;SDS011;9556;49.374;19.446;2022-11-11T13:22:07;5.28;;;2.05;;
18853;SDS011;9556;49.374;19.446;2022-11-11T13:24:36;3.63;;;1.98;;
18853;SDS011;9556;49.374;19.446;2022-11-11T13:27:05;3.10;;;2.03;;
18853;SDS011;9556;49.374;19.446;2022-11-11T13:29:49;2.92;;;2.03;;
18853;SDS011;9556;49.374;19.446;2022-11-11T13:32:21;3.38;;;2.10;;
18853;SDS011;9556;49.374;19.446;2022-11-11T13:34:51;4.25;;;2.38;;
18853;SDS011;9556;49.374;19.446;2022-11-11T13:37:20;3.63;;;1.98;;
18853;SDS011;9556;49.374;19.446;2022-11-11T13:39:48;2.40;;;1.75;;
18853;SDS011;9556;49.374;19.446;2022-11-11T13:42:20;3.60;;;2.00;;
18853;SDS011;9556;49.374;19.446;2022-11-11T13:44:49;2.90;;;2.03;;
18853;SDS011;9556;49.374;19.446;2022-11-11T13:47:17;3.90;;;1.92;;
18853;SDS011;9556;49.374;19.446;2022-11-11T13:49:45;4.03;;;2.03;;
18853;SDS011;9556;49.374;19.446;2022-11-11T13:52:20;4.70;;;2.10;;
18853;SDS011;9556;49.374;19.446;2022-11-11T13:54:48;3.85;;;1.90;;
18853;SDS011;9556;49.374;19.446;2022-11-11T13:57:20;4.63;;;2.03;;
18853;SDS011;9556;49.374;19.446;2022-11-11T13:59:51;4.55;;;1.73;;
18853;SDS011;9556;49.374;19.446;2022-11-11T14:02:27;3.30;;;2.10;;
18853;SDS011;9556;49.374;19.446;2022-11-11T14:07:46;3.67;;;2.63;;
18853;SDS011;9556;49.374;19.446;2022-11-11T14:13:10;4.25;;;2.33;;
18853;SDS011;9556;49.374;19.446;2022-11-11T14:15:49;3.47;;;2.50;;
18853;SDS011;9556;49.374;19.446;2022-11-11T14:18:37;3.97;;;2.20;;
18853;SDS011;9556;49.374;19.446;2022-11-11T14:21:06;3.70;;;2.53;;
18853;SDS011;9556;49.374;19.446;2022-11-11T14:23:35;2.88;;;2.17;;
18853;SDS011;9556;49.374;19.446;2022-11-11T14:26:19;3.50;;;2.40;;
18853;SDS011;9556;49.374;19.446;2022-11-11T14:28:50;3.85;;;2.30;;
18853;SDS011;9556;49.374;19.446;2022-11-11T14:31:28;4.68;;;2.58;;
18853;SDS011;9556;49.374;19.446;2022-11-11T14:33:58;4.55;;;2.60;;
18853;SDS011;9556;49.374;19.446;2022-11-11T14:36:29;3.33;;;2.40;;
18853;SDS011;9556;49.374;19.446;2022-11-11T14:39:00;3.88;;;2.40;;
18853;SDS011;9556;49.374;19.446;2022-11-11T14:41:43;3.70;;;2.15;;
18853;SDS011;9556;49.374;19.446;2022-11-11T14:49:45;3.30;;;2.22;;
18853;SDS011;9556;49.374;19.446;2022-11-11T14:52:15;3.40;;;2.40;;
18853;SDS011;9556;49.374;19.446;2022-11-11T14:54:50;3.63;;;2.30;;
18853;SDS011;9556;49.374;19.446;2022-11-11T14:57:20;3.45;;;2.55;;
18853;SDS011;9556;49.374;19.446;2022-11-11T14:59:48;3.58;;;2.70;;
18853;SDS011;9556;49.374;19.446;2022-11-11T15:02:24;3.58;;;2.85;;
18853;SDS011;9556;49.374;19.446;2022-11-11T15:04:53;4.57;;;2.83;;
18853;SDS011;9556;49.374;19.446;2022-11-11T15:07:25;4.32;;;2.70;;
18853;SDS011;9556;49.374;19.446;2022-11-11T15:10:02;5.78;;;2.85;;
18853;SDS011;9556;49.374;19.446;2022-11-11T15:12:45;5.65;;;3.10;;
18853;SDS011;9556;49.374;19.446;2022-11-11T15:15:17;4.15;;;2.88;;
18853;SDS011;9556;49.374;19.446;2022-11-11T15:17:50;4.15;;;3.00;;
18853;SDS011;9556;49.374;19.446;2022-11-11T15:20:25;4.53;;;2.90;;
18853;SDS011;9556;49.374;19.446;2022-11-11T15:22:56;6.10;;;3.10;;
18853;SDS011;9556;49.374;19.446;2022-11-11T15:25:29;6.10;;;3.17;;
18853;SDS011;9556;49.374;19.446;2022-11-11T15:27:59;5.45;;;3.28;;
18853;SDS011;9556;49.374;19.446;2022-11-11T15:30:36;5.65;;;3.65;;